createdAt,value
2022-08-08T00:04:04.753Z,29.4
2022-08-08T00:09:33.342Z,29.4
2022-08-08T00:15:01.190Z,29.4
2022-08-08T00:20:24.731Z,29.3
2022-08-08T00:25:51.731Z,29.3
2022-08-08T00:32:36.435Z,29.3
2022-08-08T00:38:03.015Z,29.4
2022-08-08T00:43:21.321Z,29.3
2022-08-08T00:49:01.499Z,29.3
2022-08-08T00:54:21.053Z,29.3
2022-08-08T00:59:47.273Z,29.3
2022-08-08T01:05:05.482Z,29.4
2022-08-08T01:10:23.973Z,29.4
2022-08-08T01:15:54.995Z,29.4
2022-08-08T01:21:14.286Z,29.5
2022-08-08T01:26:49.788Z,29.5
2022-08-08T01:32:17.745Z,29.4
2022-08-08T01:37:59.092Z,29.5
2022-08-08T01:43:18.738Z,29.5
2022-08-08T01:48:37.293Z,29.5
2022-08-08T01:55:46.138Z,29.5
2022-08-08T02:02:05.141Z,29.4
2022-08-08T02:07:48.955Z,29.5
2022-08-08T02:13:55.486Z,29.5
2022-08-08T02:20:08.139Z,29.4
2022-08-08T02:26:18.086Z,29
2022-08-08T02:32:04.804Z,29.2
2022-08-08T02:37:58.293Z,29.2
2022-08-08T02:44:49.879Z,29.2
2022-08-08T02:50:01.646Z,29.3
2022-08-08T02:55:21.789Z,29.1
2022-08-08T03:00:51.378Z,29.1
2022-08-08T03:06:10.985Z,29.2
2022-08-08T03:12:05.928Z,29.2
2022-08-08T03:17:40.827Z,29.2
2022-08-08T03:23:00.912Z,29.2
2022-08-08T03:28:26.602Z,29.2
2022-08-08T03:34:01.194Z,29.2
2022-08-08T03:39:22.145Z,29.2
2022-08-08T03:44:47.956Z,29.1
2022-08-08T03:50:20.455Z,29.1
2022-08-08T03:56:04.713Z,29.1
2022-08-08T04:02:33.571Z,29.1
2022-08-08T04:08:10.580Z,29.1
2022-08-08T04:14:35.886Z,29.1
2022-08-08T04:19:56.750Z,29.1
2022-08-08T04:25:17.394Z,29.1
2022-08-08T04:30:45.081Z,29.2
2022-08-08T04:36:04.950Z,29.2
2022-08-08T04:41:23.585Z,29.1
2022-08-08T04:46:43.549Z,29
2022-08-08T04:52:04.543Z,29
2022-08-08T04:57:23.152Z,29
2022-08-08T05:02:42.592Z,28.9
2022-08-08T05:08:03.229Z,29
2022-08-08T05:13:26.479Z,29.1
2022-08-08T05:18:45.091Z,29.1
2022-08-08T05:24:10.579Z,29.1
2022-08-08T05:29:29.887Z,29.1
2022-08-08T05:34:49.724Z,29.2
2022-08-08T05:40:16.472Z,29.2
2022-08-08T05:45:55.046Z,29.2
2022-08-08T05:51:26.116Z,29.2
2022-08-08T05:56:47.958Z,29.3
2022-08-08T06:02:09.721Z,29.3
2022-08-08T06:07:30.816Z,29.3
2022-08-08T06:13:02.026Z,29.3
2022-08-08T06:18:22.793Z,29.3
2022-08-08T06:24:03.723Z,29.4
2022-08-08T06:30:02.071Z,29.4
2022-08-08T06:36:10.073Z,29.4
2022-08-08T06:41:33.547Z,29.4
2022-08-08T06:46:52.292Z,29.5
2022-08-08T06:52:10.485Z,29.5
2022-08-08T06:57:59.431Z,29.5
2022-08-08T07:04:45.323Z,29.5
2022-08-08T07:10:12.715Z,29.5
2022-08-08T07:16:06.096Z,29.5
2022-08-08T07:21:32.210Z,29.5
2022-08-08T07:26:53.705Z,29.6
2022-08-08T07:32:22.130Z,29.6
2022-08-08T07:38:20.361Z,29.6
2022-08-08T07:43:54.272Z,29.6
2022-08-08T07:49:14.481Z,29.6
2022-08-08T07:54:33.695Z,29.6
2022-08-08T07:59:53.819Z,29.6
2022-08-08T08:05:16.005Z,29.7
2022-08-08T08:10:36.114Z,29.7
2022-08-08T08:15:57.500Z,29.7
2022-08-08T08:21:19.592Z,29.7
2022-08-08T08:26:55.878Z,29.7
2022-08-08T08:32:36.845Z,29.7
2022-08-08T08:38:19.239Z,29.7
2022-08-08T08:43:42.973Z,29.7
2022-08-08T08:49:03.424Z,29.8
2022-08-08T08:54:25.958Z,29.8
2022-08-08T09:00:04.972Z,29.8
2022-08-08T09:05:56.216Z,29.8
2022-08-08T09:11:14.956Z,29.8
2022-08-08T09:16:35.350Z,29.8
2022-08-08T09:22:06.930Z,29.8
2022-08-08T09:27:58.472Z,29.9
2022-08-08T09:34:34.422Z,29.9
2022-08-08T09:39:55.778Z,29.9
2022-08-08T09:45:54.421Z,29.9
2022-08-08T09:51:23.363Z,29.9
2022-08-08T09:56:46.486Z,29.9
2022-08-08T10:02:14.681Z,29.9
2022-08-08T10:07:36.492Z,29.9
2022-08-08T10:12:57.257Z,29.9
2022-08-08T10:18:33.210Z,29.9
2022-08-08T10:23:59.924Z,29.9
2022-08-08T10:29:23.565Z,29.9
2022-08-08T10:35:01.699Z,29.9
2022-08-08T10:40:20.835Z,30
2022-08-08T10:45:41.774Z,30
2022-08-08T10:51:14.384Z,30
2022-08-08T10:56:35.665Z,30
2022-08-08T11:02:03.284Z,30
2022-08-08T11:08:41.222Z,30
2022-08-08T11:14:16.483Z,30
2022-08-08T11:19:46.711Z,30
2022-08-08T11:25:16.266Z,30
2022-08-08T11:30:49.975Z,30
2022-08-08T11:36:13.675Z,30
2022-08-08T11:41:34.085Z,30.1
2022-08-08T11:46:54.614Z,30.1
2022-08-08T11:52:26.903Z,30
2022-08-08T11:58:00.096Z,30.1
2022-08-08T12:03:33.476Z,30.1
2022-08-08T12:08:51.966Z,30.1
2022-08-08T12:14:12.299Z,30.1
2022-08-08T12:19:53.972Z,30.1
2022-08-08T12:25:12.830Z,30.1
2022-08-08T12:30:33.759Z,30.1
2022-08-08T12:35:53.431Z,30.1
2022-08-08T12:41:35.521Z,30.2
2022-08-08T12:48:04.370Z,30.2
2022-08-08T12:53:59.058Z,30.2
2022-08-08T12:59:18.079Z,30.2
2022-08-08T13:04:42.456Z,30.2
2022-08-08T13:10:11.156Z,30.2
2022-08-08T13:15:29.343Z,30.2
2022-08-08T13:20:49.311Z,30.3
2022-08-08T13:26:15.290Z,30.3
2022-08-08T13:31:36.349Z,30.3
2022-08-08T13:36:59.284Z,30.3
2022-08-08T13:42:21.274Z,30
2022-08-08T13:47:56.088Z,29.9
2022-08-08T13:53:26.074Z,29.7
2022-08-08T13:58:45.265Z,29.6
2022-08-08T14:04:20.165Z,29.4
2022-08-08T14:10:12.159Z,29.3
2022-08-08T14:15:50.963Z,29.1
2022-08-08T14:21:20.585Z,29
2022-08-08T14:26:41.114Z,28.9
2022-08-08T14:32:23.578Z,28.8
2022-08-08T14:38:07.338Z,28.8
2022-08-08T14:44:14.073Z,28.6
2022-08-08T14:50:11.654Z,28.6
2022-08-08T14:56:04.607Z,28.4
2022-08-08T15:01:28.073Z,28.5
2022-08-08T15:07:04.683Z,28.7
2022-08-08T15:12:56.841Z,28.8
2022-08-08T15:18:20.619Z,28.9
2022-08-08T15:23:52.055Z,28.9
2022-08-08T15:29:12.644Z,29
2022-08-08T15:34:33.407Z,29
2022-08-08T15:39:55.139Z,29
2022-08-08T15:45:13.424Z,29
2022-08-08T15:50:32.187Z,29.1
2022-08-08T15:55:50.978Z,29.1
2022-08-08T16:01:10.023Z,29.1
2022-08-08T16:06:31.622Z,29.2
2022-08-08T16:13:35.118Z,29.2
2022-08-08T16:19:04.995Z,29.3
2022-08-08T16:24:23.754Z,29.4
2022-08-08T16:30:16.412Z,29.4
2022-08-08T16:35:54.664Z,29.5
2022-08-08T16:41:21.143Z,29.5
2022-08-08T16:46:46.749Z,29.6
2022-08-08T16:55:33.839Z,29.6
2022-08-08T17:01:15.955Z,29.7
2022-08-08T17:06:44.171Z,29.7
2022-08-08T17:12:02.863Z,29.7
2022-08-08T17:18:03.939Z,29.7
2022-08-08T17:24:04.337Z,29.7
2022-08-08T17:29:57.394Z,29.8
2022-08-08T17:36:09.169Z,29.8
2022-08-08T17:42:02.673Z,29.8
2022-08-08T17:47:37.821Z,29.8
2022-08-08T17:52:59.546Z,29.8
2022-08-08T17:58:18.361Z,29.8
2022-08-08T18:03:38.155Z,29.8
2022-08-08T18:08:58.820Z,29.8
2022-08-08T18:14:22.866Z,29.8
2022-08-08T18:19:46.131Z,29.8
2022-08-08T18:26:17.779Z,29.8
2022-08-08T18:31:39.463Z,29.9
2022-08-08T18:36:59.963Z,29.9
2022-08-08T18:42:18.182Z,29.9
2022-08-08T18:47:36.394Z,29.9
2022-08-08T18:52:55.151Z,29.9
2022-08-08T18:58:13.925Z,29.9
2022-08-08T19:04:12.646Z,29.9
2022-08-08T19:10:13.378Z,29.9
2022-08-08T19:15:35.112Z,29.9
2022-08-08T19:20:53.601Z,29.9
2022-08-08T19:26:31.295Z,29.9
2022-08-08T19:31:53.073Z,29.9
2022-08-08T19:37:17.161Z,29.9
2022-08-08T19:42:35.945Z,29.9
2022-08-08T19:47:54.430Z,29.9
2022-08-08T19:53:54.275Z,29.9
2022-08-08T19:59:13.381Z,29.9
2022-08-08T20:04:31.600Z,30
2022-08-08T20:09:58.445Z,29.9
2022-08-08T20:15:17.628Z,30
2022-08-08T20:20:35.823Z,29.9
2022-08-08T20:25:58.884Z,29.9
2022-08-08T20:31:21.419Z,29.9
2022-08-08T20:36:43.486Z,29.9
2022-08-08T20:42:04.305Z,29.9
2022-08-08T20:47:25.438Z,29.9
2022-08-08T20:52:48.599Z,29.9
2022-08-08T20:58:23.180Z,29.9
2022-08-08T21:04:01.619Z,29.8
2022-08-08T21:09:21.815Z,29.5
2022-08-08T21:14:40.333Z,29.6
2022-08-08T21:19:59.136Z,29.7
2022-08-08T21:25:17.611Z,29.7
2022-08-08T21:30:35.815Z,29.7
2022-08-08T21:36:19.763Z,29.7
2022-08-08T21:41:59.004Z,29.7
2022-08-08T21:48:12.826Z,29.7
2022-08-08T21:54:54.366Z,29.7
2022-08-08T22:00:41.205Z,29.7
2022-08-08T22:06:02.011Z,29.7
2022-08-08T22:12:09.091Z,29.7
2022-08-08T22:17:45.963Z,29.7
2022-08-08T22:23:08.235Z,29.6
2022-08-08T22:30:01.749Z,29.6
2022-08-08T22:35:24.225Z,29.6
2022-08-08T22:41:32.122Z,29.6
2022-08-08T22:46:52.015Z,29.6
2022-08-08T22:52:18.189Z,29.7
2022-08-08T22:57:52.120Z,29.7
2022-08-08T23:03:14.920Z,29.7
2022-08-08T23:08:44.334Z,29.7
2022-08-08T23:14:18.771Z,29.7
2022-08-08T23:19:37.365Z,29.6
2022-08-08T23:24:58.957Z,29.6
2022-08-08T23:30:18.354Z,29.6
2022-08-08T23:36:09.173Z,29.6
2022-08-08T23:41:29.663Z,29.6
2022-08-08T23:49:15.751Z,29.6
2022-08-08T23:55:00.503Z,29.6
